Time;durP1;ratioP1;P1;durP2;ratioP2;P2;SDS_P1;SDS_P2;PMS_P1;PMS_P2;Temp;Humidity;BMP_temperature;BMP_pressure;BME280_temperature;BME280_humidity;BME280_pressure;Samples;Min_cycle;Max_cycle;Signal;HPM_P1;HPM_P2
2022/08/23 00:00:19;;;;;;;1.40;0.20;;;;;;;;;;4165805;28;20061;-41
2022/08/23 00:02:20;;;;;;;0.40;0.20;;;;;;;;;;4165435;28;20103;-41
2022/08/23 00:04:25;;;;;;;0.85;0.30;;;;;;;;;;4165499;28;20091;-41
2022/08/23 00:06:27;;;;;;;0.28;0.20;;;;;;;;;;4164442;28;20049;-41
2022/08/23 00:08:28;;;;;;;0.45;0.20;;;;;;;;;;4165429;28;20095;-41
2022/08/23 00:10:31;;;;;;;0.30;0.03;;;;;;;;;;4165546;28;20050;-41
2022/08/23 00:12:32;;;;;;;0.20;0.20;;;;;;;;;;4165126;28;20568;-41
2022/08/23 00:14:37;;;;;;;0.28;0.28;;;;;;;;;;4165499;28;20364;-41
2022/08/23 00:16:39;;;;;;;0.10;0.10;;;;;;;;;;4165791;28;20061;-41
2022/08/23 00:18:40;;;;;;;0.25;0.10;;;;;;;;;;4147943;28;20513;-42
2022/08/23 00:20:42;;;;;;;0.95;0.32;;;;;;;;;;4165652;28;20523;-41
2022/08/23 00:22:43;;;;;;;0.68;0.20;;;;;;;;;;4164188;28;20079;-41
2022/08/23 00:24:44;;;;;;;0.30;0.17;;;;;;;;;;4165380;28;20408;-41
2022/08/23 00:27:07;;;;;;;0.25;0.22;;;;;;;;;;4164318;28;20049;-41
2022/08/23 00:29:09;;;;;;;1.10;0.40;;;;;;;;;;4164776;28;20492;-41
2022/08/23 00:31:10;;;;;;;0.22;0.20;;;;;;;;;;4165532;28;20111;-41
2022/08/23 00:33:11;;;;;;;0.20;0.20;;;;;;;;;;4165112;28;20049;-41
2022/08/23 00:35:14;;;;;;;0.65;0.20;;;;;;;;;;4165239;28;20111;-41
2022/08/23 00:37:16;;;;;;;0.65;0.20;;;;;;;;;;4163581;28;20053;-42
2022/08/23 00:39:19;;;;;;;1.65;0.20;;;;;;;;;;4165257;28;20087;-41
2022/08/23 00:41:20;;;;;;;0.35;0.20;;;;;;;;;;4165162;28;20053;-41
2022/08/23 00:48:25;;;;;;;0.38;0.17;;;;;;;;;;4164926;28;20053;-41
2022/08/23 00:50:31;;;;;;;0.70;0.40;;;;;;;;;;4152433;28;20058;-41
2022/08/23 00:52:39;;;;;;;2.10;0.20;;;;;;;;;;4147053;28;20104;-42
2022/08/23 00:54:40;;;;;;;0.25;0.20;;;;;;;;;;4147264;28;20053;-41
2022/08/23 00:56:41;;;;;;;0.50;0.22;;;;;;;;;;4147281;28;20426;-41
2022/08/23 00:58:45;;;;;;;0.13;0.10;;;;;;;;;;4148122;28;20058;-41
2022/08/23 01:00:48;;;;;;;0.82;0.30;;;;;;;;;;4148247;28;20080;-42
2022/08/23 01:02:50;;;;;;;0.55;0.25;;;;;;;;;;4148412;28;20049;-42
2022/08/23 01:04:57;;;;;;;0.35;0.20;;;;;;;;;;4147286;28;20053;-42
2022/08/23 01:07:07;;;;;;;0.47;0.20;;;;;;;;;;4148625;28;20053;-42
2022/08/23 01:09:13;;;;;;;0.20;0.17;;;;;;;;;;4148273;28;20104;-41
2022/08/23 01:11:32;;;;;;;0.20;0.20;;;;;;;;;;4147224;28;20187;-41
2022/08/23 01:13:51;;;;;;;0.55;0.30;;;;;;;;;;4146646;28;20413;-41
2022/08/23 01:16:00;;;;;;;0.55;0.40;;;;;;;;;;4130582;28;20062;-41
2022/08/23 01:18:04;;;;;;;0.10;0.10;;;;;;;;;;4146863;28;20058;-41
2022/08/23 01:20:18;;;;;;;0.60;0.20;;;;;;;;;;4148233;28;20127;-41
2022/08/23 01:22:40;;;;;;;0.40;0.20;;;;;;;;;;4146842;28;20104;-41
2022/08/23 01:24:42;;;;;;;0.52;0.30;;;;;;;;;;4147062;28;20080;-41
2022/08/23 01:26:43;;;;;;;0.30;0.20;;;;;;;;;;4147013;28;20065;-41
2022/08/23 01:28:45;;;;;;;0.28;0.20;;;;;;;;;;4153721;28;20041;-41
2022/08/23 01:30:47;;;;;;;0.30;0.20;;;;;;;;;;4164439;28;20053;-41
2022/08/23 01:32:57;;;;;;;0.50;0.20;;;;;;;;;;4146545;28;20160;-41
2022/08/23 01:34:58;;;;;;;0.82;0.30;;;;;;;;;;4160124;28;20137;-43
2022/08/23 01:37:00;;;;;;;0.28;0.20;;;;;;;;;;4144810;28;20058;-41
2022/08/23 01:39:04;;;;;;;0.10;0.10;;;;;;;;;;4160839;28;20049;-41
2022/08/23 01:41:08;;;;;;;0.32;0.20;;;;;;;;;;4144632;28;20077;-41
2022/08/23 01:43:10;;;;;;;0.38;0.20;;;;;;;;;;4160298;28;20390;-41
2022/08/23 01:45:13;;;;;;;0.63;0.20;;;;;;;;;;4160792;28;20057;-41
2022/08/23 01:47:14;;;;;;;0.20;0.10;;;;;;;;;;4145366;28;20049;-41
2022/08/23 01:49:15;;;;;;;1.30;0.47;;;;;;;;;;4146386;28;20112;-41
2022/08/23 01:51:18;;;;;;;0.50;0.30;;;;;;;;;;4160764;28;20122;-41
2022/08/23 01:53:20;;;;;;;0.22;0.20;;;;;;;;;;4160322;28;20499;-42
2022/08/23 01:55:24;;;;;;;0.20;0.15;;;;;;;;;;4145822;28;20053;-42
2022/08/23 01:57:27;;;;;;;0.65;0.20;;;;;;;;;;4160082;28;20477;-41
2022/08/23 01:59:29;;;;;;;0.32;0.28;;;;;;;;;;4145402;28;20104;-41
2022/08/23 02:01:31;;;;;;;0.30;0.20;;;;;;;;;;4160279;28;20416;-41
2022/08/23 02:03:33;;;;;;;0.57;0.30;;;;;;;;;;4160460;28;20092;-41
2022/08/23 02:05:36;;;;;;;0.57;0.20;;;;;;;;;;4161675;28;20057;-41
2022/08/23 02:07:37;;;;;;;0.32;0.20;;;;;;;;;;4160378;28;20155;-41
2022/08/23 02:09:39;;;;;;;0.50;0.20;;;;;;;;;;4160438;28;20053;-41
2022/08/23 02:11:41;;;;;;;0.20;0.20;;;;;;;;;;4160419;28;20215;-41
2022/08/23 02:13:42;;;;;;;0.40;0.20;;;;;;;;;;4159917;28;20053;-41
2022/08/23 02:15:49;;;;;;;0.32;0.28;;;;;;;;;;4161939;28;20057;-41
2022/08/23 02:17:54;;;;;;;0.20;0.20;;;;;;;;;;4144504;28;20135;-41
2022/08/23 02:19:55;;;;;;;0.52;0.35;;;;;;;;;;4160076;28;20177;-41
2022/08/23 02:21:57;;;;;;;0.45;0.10;;;;;;;;;;4161688;28;20053;-41
2022/08/23 02:23:59;;;;;;;0.30;0.15;;;;;;;;;;4160430;28;20061;-41
2022/08/23 02:26:00;;;;;;;0.20;0.10;;;;;;;;;;4163576;28;20080;-41
2022/08/23 02:28:02;;;;;;;0.20;0.20;;;;;;;;;;4161702;28;20508;-41
2022/08/23 02:30:03;;;;;;;0.50;0.40;;;;;;;;;;4162189;28;20068;-42
2022/08/23 02:32:05;;;;;;;0.40;0.20;;;;;;;;;;4162004;28;20049;-41
2022/08/23 02:34:06;;;;;;;0.30;0.20;;;;;;;;;;4163142;28;20079;-41
2022/08/23 02:36:08;;;;;;;0.13;0.10;;;;;;;;;;4161824;28;20068;-41
2022/08/23 02:38:11;;;;;;;0.65;0.28;;;;;;;;;;4162936;28;20056;-41
2022/08/23 02:40:13;;;;;;;0.32;0.20;;;;;;;;;;4162064;28;20060;-41
2022/08/23 02:42:14;;;;;;;0.10;0.10;;;;;;;;;;4163326;28;20130;-41
2022/08/23 02:44:18;;;;;;;0.10;0.10;;;;;;;;;;4163512;28;20056;-41
2022/08/23 02:46:20;;;;;;;0.45;0.25;;;;;;;;;;4162179;28;20060;-41
2022/08/23 02:48:22;;;;;;;0.30;0.20;;;;;;;;;;4161781;28;20374;-40
2022/08/23 02:50:35;;;;;;;0.13;0.13;;;;;;;;;;4163134;28;20053;-40
2022/08/23 02:52:37;;;;;;;0.30;0.20;;;;;;;;;;4145635;28;20390;-41
2022/08/23 02:54:39;;;;;;;0.17;0.10;;;;;;;;;;4163146;28;20061;-40
2022/08/23 02:56:40;;;;;;;0.22;0.20;;;;;;;;;;4161976;28;20049;-40
2022/08/23 02:58:44;;;;;;;0.20;0.20;;;;;;;;;;4161233;28;20437;-41
2022/08/23 03:00:48;;;;;;;0.10;0.10;;;;;;;;;;4145741;28;20489;-41
2022/08/23 03:02:49;;;;;;;0.20;0.10;;;;;;;;;;4161532;28;20575;-41
2022/08/23 03:04:50;;;;;;;0.88;0.50;;;;;;;;;;4161531;28;20053;-41
2022/08/23 03:06:52;;;;;;;0.60;0.40;;;;;;;;;;4160133;28;20581;-41
2022/08/23 03:08:55;;;;;;;0.20;0.20;;;;;;;;;;4160881;28;20120;-41
2022/08/23 03:10:56;;;;;;;0.60;0.30;;;;;;;;;;4161883;28;20107;-40
2022/08/23 03:12:57;;;;;;;2.35;0.22;;;;;;;;;;4161422;28;20049;-40
2022/08/23 03:14:59;;;;;;;0.15;0.10;;;;;;;;;;4162919;28;20053;-40
2022/08/23 03:17:00;;;;;;;0.30;0.20;;;;;;;;;;4161089;28;20088;-41
2022/08/23 03:19:02;;;;;;;0.20;0.10;;;;;;;;;;4162000;28;20049;-41
2022/08/23 03:21:04;;;;;;;0.50;0.20;;;;;;;;;;4162761;28;20102;-41
2022/08/23 03:23:08;;;;;;;0.52;0.20;;;;;;;;;;4161263;28;20057;-41
2022/08/23 03:25:09;;;;;;;0.90;0.30;;;;;;;;;;4161672;28;20187;-41
2022/08/23 03:27:27;;;;;;;0.77;0.28;;;;;;;;;;4161186;28;20053;-41
2022/08/23 03:29:28;;;;;;;0.32;0.20;;;;;;;;;;4161465;28;20057;-41
2022/08/23 03:31:33;;;;;;;0.85;0.20;;;;;;;;;;4162525;28;20053;-41
2022/08/23 03:33:40;;;;;;;0.90;0.28;;;;;;;;;;4161134;28;20381;-40
2022/08/23 03:35:41;;;;;;;0.20;0.17;;;;;;;;;;4161256;28;20575;-41
2022/08/23 03:37:45;;;;;;;0.80;0.40;;;;;;;;;;4162409;28;20429;-41
2022/08/23 03:39:48;;;;;;;0.80;0.20;;;;;;;;;;4161232;28;20061;-40
2022/08/23 03:41:49;;;;;;;0.45;0.25;;;;;;;;;;4161421;28;20057;-41
2022/08/23 03:43:51;;;;;;;0.47;0.13;;;;;;;;;;4160653;28;20057;-40
2022/08/23 03:45:53;;;;;;;0.40;0.30;;;;;;;;;;4161087;28;20389;-41
2022/08/23 03:47:56;;;;;;;0.70;0.22;;;;;;;;;;4161044;28;20099;-40
2022/08/23 03:49:57;;;;;;;0.30;0.20;;;;;;;;;;4144656;28;20521;-41
2022/08/23 03:51:59;;;;;;;0.38;0.15;;;;;;;;;;4162400;28;20057;-40
2022/08/23 03:54:01;;;;;;;0.38;0.17;;;;;;;;;;4161010;28;20515;-41
2022/08/23 03:56:02;;;;;;;0.28;0.20;;;;;;;;;;4161201;28;20087;-40
2022/08/23 03:58:03;;;;;;;0.75;0.25;;;;;;;;;;4160369;28;20398;-41
2022/08/23 04:00:07;;;;;;;0.70;0.30;;;;;;;;;;4156739;28;20054;-41
2022/08/23 04:02:15;;;;;;;0.93;0.30;;;;;;;;;;4146225;28;20058;-40
2022/08/23 04:04:16;;;;;;;0.47;0.30;;;;;;;;;;4144779;28;20054;-41
2022/08/23 04:06:37;;;;;;;0.32;0.20;;;;;;;;;;4145955;28;20484;-41
2022/08/23 04:08:39;;;;;;;0.90;0.30;;;;;;;;;;4145892;28;20058;-41
2022/08/23 04:10:41;;;;;;;0.25;0.20;;;;;;;;;;4142784;28;20061;-42
2022/08/23 04:12:42;;;;;;;0.40;0.10;;;;;;;;;;4143663;28;20502;-41
2022/08/23 04:14:49;;;;;;;0.47;0.30;;;;;;;;;;4142811;28;20053;-42
2022/08/23 04:16:51;;;;;;;1.35;0.30;;;;;;;;;;4142644;28;20116;-41
2022/08/23 04:18:53;;;;;;;0.30;0.20;;;;;;;;;;4142534;28;20045;-41
2022/08/23 04:20:57;;;;;;;0.45;0.22;;;;;;;;;;4126543;28;20549;-42
2022/08/23 04:22:58;;;;;;;0.95;0.30;;;;;;;;;;4142391;28;20149;-40
2022/08/23 04:25:02;;;;;;;0.90;0.43;;;;;;;;;;4142602;28;20057;-41
2022/08/23 04:27:04;;;;;;;0.47;0.25;;;;;;;;;;4158758;28;20080;-41
2022/08/23 04:29:07;;;;;;;0.28;0.20;;;;;;;;;;4142714;28;20468;-41
2022/08/23 04:31:08;;;;;;;1.67;0.55;;;;;;;;;;4146986;28;20483;-41
2022/08/23 04:33:11;;;;;;;0.40;0.30;;;;;;;;;;4145256;28;20448;-42
2022/08/23 04:35:14;;;;;;;0.55;0.35;;;;;;;;;;4145401;28;20089;-41
2022/08/23 04:37:17;;;;;;;0.43;0.20;;;;;;;;;;4153558;28;20195;-41
2022/08/23 04:39:19;;;;;;;0.30;0.20;;;;;;;;;;4173834;28;20065;-40
2022/08/23 04:43:40;;;;;;;;;;;;;;;;;;4170528;28;20518;-41
2022/08/23 04:45:43;;;;;;;0.55;0.20;;;;;;;;;;4143312;28;19926;-40
2022/08/23 04:47:53;;;;;;;0.52;0.38;;;;;;;;;;4177909;28;20553;-40
2022/08/23 04:49:54;;;;;;;0.70;0.20;;;;;;;;;;4161914;28;20049;-40
2022/08/23 04:51:56;;;;;;;0.43;0.38;;;;;;;;;;4161804;28;20123;-40
2022/08/23 04:53:58;;;;;;;0.45;0.17;;;;;;;;;;4161576;28;20057;-40
2022/08/23 04:56:11;;;;;;;0.32;0.30;;;;;;;;;;4163046;28;20107;-40
2022/08/23 04:58:13;;;;;;;0.25;0.20;;;;;;;;;;4160803;28;20101;-40
2022/08/23 05:00:20;;;;;;;0.47;0.20;;;;;;;;;;4161282;28;20057;-40
2022/08/23 05:02:28;;;;;;;0.43;0.30;;;;;;;;;;4161069;28;20450;-41
2022/08/23 05:04:30;;;;;;;0.55;0.35;;;;;;;;;;4161373;28;20068;-40
2022/08/23 05:06:32;;;;;;;0.30;0.30;;;;;;;;;;4161357;28;20147;-40
2022/08/23 05:08:33;;;;;;;0.80;0.30;;;;;;;;;;4162654;28;20116;-40
2022/08/23 05:10:34;;;;;;;0.60;0.28;;;;;;;;;;4161227;28;20061;-40
2022/08/23 05:12:35;;;;;;;0.20;0.20;;;;;;;;;;4160919;28;20517;-40
2022/08/23 05:14:37;;;;;;;0.28;0.28;;;;;;;;;;4161548;28;20107;-40
2022/08/23 05:16:39;;;;;;;0.22;0.17;;;;;;;;;;4161730;28;20065;-40
2022/08/23 05:18:44;;;;;;;0.47;0.20;;;;;;;;;;4162586;28;20054;-40
2022/08/23 05:20:45;;;;;;;0.20;0.17;;;;;;;;;;4161317;28;20061;-40
2022/08/23 05:22:47;;;;;;;0.20;0.17;;;;;;;;;;4160638;28;20080;-40
2022/08/23 05:24:56;;;;;;;0.40;0.17;;;;;;;;;;4161040;28;20057;-40
2022/08/23 05:26:57;;;;;;;0.30;0.20;;;;;;;;;;4161337;28;20238;-40
2022/08/23 05:28:58;;;;;;;0.70;0.45;;;;;;;;;;4160754;28;20064;-40
2022/08/23 05:31:14;;;;;;;0.70;0.40;;;;;;;;;;4160942;28;20402;-40
2022/08/23 05:33:20;;;;;;;0.40;0.25;;;;;;;;;;4161018;28;20482;-40
2022/08/23 05:35:22;;;;;;;0.50;0.30;;;;;;;;;;4160738;28;20131;-40
2022/08/23 05:37:23;;;;;;;0.60;0.40;;;;;;;;;;4160760;28;20057;-40
2022/08/23 05:39:24;;;;;;;0.30;0.30;;;;;;;;;;4162248;28;20104;-40
2022/08/23 05:41:26;;;;;;;0.35;0.20;;;;;;;;;;4160124;28;20168;-40
2022/08/23 05:43:28;;;;;;;0.38;0.30;;;;;;;;;;4160319;28;20095;-40
2022/08/23 05:45:29;;;;;;;0.60;0.35;;;;;;;;;;4160672;28;20195;-40
2022/08/23 05:47:30;;;;;;;0.20;0.20;;;;;;;;;;4160363;28;20416;-41
2022/08/23 05:50:05;;;;;;;0.30;0.22;;;;;;;;;;4160190;28;20505;-40
2022/08/23 05:52:11;;;;;;;0.20;0.20;;;;;;;;;;4153156;28;20115;-40
2022/08/23 05:54:12;;;;;;;0.30;0.20;;;;;;;;;;4176714;28;20060;-40
2022/08/23 05:56:27;;;;;;;0.68;0.30;;;;;;;;;;4145582;28;20053;-43
2022/08/23 05:58:28;;;;;;;2.00;0.47;;;;;;;;;;4157829;28;20508;-41
2022/08/23 06:00:29;;;;;;;0.40;0.10;;;;;;;;;;4161455;28;20061;-41
2022/08/23 06:02:36;;;;;;;0.77;0.40;;;;;;;;;;4157650;28;20053;-40
2022/08/23 06:04:37;;;;;;;0.20;0.20;;;;;;;;;;4161540;28;20501;-40
2022/08/23 06:06:40;;;;;;;0.57;0.30;;;;;;;;;;4159463;28;20092;-40
2022/08/23 06:08:45;;;;;;;0.90;0.30;;;;;;;;;;4159474;28;20138;-40
2022/08/23 06:10:47;;;;;;;0.20;0.20;;;;;;;;;;4160245;28;20088;-40
2022/08/23 06:13:01;;;;;;;0.25;0.25;;;;;;;;;;4160097;28;20057;-40
2022/08/23 06:15:03;;;;;;;2.65;0.85;;;;;;;;;;4160487;28;20115;-40
2022/08/23 06:17:05;;;;;;;0.73;0.30;;;;;;;;;;4157544;28;20057;-40
2022/08/23 06:19:08;;;;;;;1.48;0.32;;;;;;;;;;4144465;28;20049;-40
2022/08/23 06:21:29;;;;;;;0.55;0.30;;;;;;;;;;4159137;28;20065;-40
2022/08/23 06:23:31;;;;;;;1.80;0.40;;;;;;;;;;4157128;28;20126;-40
2022/08/23 06:25:38;;;;;;;0.73;0.32;;;;;;;;;;4142749;28;20205;-40
2022/08/23 06:27:46;;;;;;;0.60;0.20;;;;;;;;;;4151101;28;20429;-40
2022/08/23 06:29:48;;;;;;;3.88;0.45;;;;;;;;;;4167183;28;20595;-40
2022/08/23 06:32:07;;;;;;;1.27;0.22;;;;;;;;;;4147125;28;20066;-40
2022/08/23 06:34:23;;;;;;;0.73;0.30;;;;;;;;;;4166323;28;20531;-41
2022/08/23 06:36:46;;;;;;;2.22;0.45;;;;;;;;;;4155963;28;20061;-40
2022/08/23 06:38:53;;;;;;;1.38;0.60;;;;;;;;;;4149124;28;20057;-41
2022/08/23 06:41:15;;;;;;;0.55;0.30;;;;;;;;;;4141159;28;20067;-41
2022/08/23 06:43:37;;;;;;;0.82;0.35;;;;;;;;;;4145425;28;20069;-40
2022/08/23 06:45:52;;;;;;;0.50;0.30;;;;;;;;;;4168399;28;20057;-40
2022/08/23 06:47:54;;;;;;;0.93;0.30;;;;;;;;;;4152357;28;20433;-40
2022/08/23 06:49:56;;;;;;;0.57;0.30;;;;;;;;;;4154231;28;20057;-40
2022/08/23 06:52:08;;;;;;;2.20;0.30;;;;;;;;;;4147286;28;20124;-41
2022/08/23 06:54:31;;;;;;;2.28;0.30;;;;;;;;;;4152413;28;20107;-42
2022/08/23 06:56:52;;;;;;;0.30;0.20;;;;;;;;;;4150703;28;20398;-41
2022/08/23 06:58:58;;;;;;;2.17;0.38;;;;;;;;;;4139140;28;20131;-42
2022/08/23 07:01:34;;;;;;;1.65;0.47;;;;;;;;;;4156430;28;20517;-41
2022/08/23 07:03:39;;;;;;;2.35;0.60;;;;;;;;;;4146275;28;20074;-49
2022/08/23 07:06:00;;;;;;;;;;;;;;;;;;4143530;28;20056;-42
2022/08/23 07:08:04;;;;;;;1.58;0.38;;;;;;;;;;4147549;28;19933;-42
2022/08/23 07:10:06;;;;;;;5.60;0.32;;;;;;;;;;4162022;28;20123;-42
2022/08/23 07:12:09;;;;;;;2.28;0.50;;;;;;;;;;4148884;28;20054;-41
2022/08/23 07:14:16;;;;;;;0.40;0.30;;;;;;;;;;4148865;28;20065;-42
2022/08/23 07:16:18;;;;;;;0.50;0.30;;;;;;;;;;4143670;28;20107;-42
2022/08/23 07:18:19;;;;;;;1.60;0.40;;;;;;;;;;4144979;28;20111;-42
2022/08/23 07:20:20;;;;;;;2.50;0.50;;;;;;;;;;4144275;28;20081;-44
2022/08/23 07:22:23;;;;;;;0.98;0.28;;;;;;;;;;4142696;28;20060;-43
2022/08/23 07:24:25;;;;;;;1.00;0.50;;;;;;;;;;4150147;28;20053;-42
2022/08/23 07:26:28;;;;;;;1.48;0.50;;;;;;;;;;4147981;28;20057;-42
2022/08/23 07:28:30;;;;;;;0.95;0.50;;;;;;;;;;4117677;28;20050;-41
2022/08/23 07:30:32;;;;;;;0.65;0.35;;;;;;;;;;4145776;28;20061;-44
2022/08/23 07:32:34;;;;;;;1.23;0.30;;;;;;;;;;4147657;28;20524;-43
2022/08/23 07:34:46;;;;;;;1.40;0.50;;;;;;;;;;4148149;28;20111;-42
2022/08/23 07:36:48;;;;;;;2.78;0.30;;;;;;;;;;4147317;28;20049;-41
2022/08/23 07:38:50;;;;;;;2.78;0.52;;;;;;;;;;4149454;28;20535;-41
2022/08/23 07:40:51;;;;;;;2.25;0.30;;;;;;;;;;4142086;28;20053;-41
2022/08/23 07:42:56;;;;;;;0.47;0.30;;;;;;;;;;4149910;28;20350;-41
2022/08/23 07:44:57;;;;;;;0.60;0.30;;;;;;;;;;4145761;28;20111;-42
2022/08/23 07:47:01;;;;;;;1.55;0.50;;;;;;;;;;4144310;28;20420;-41
2022/08/23 07:49:04;;;;;;;0.70;0.40;;;;;;;;;;4148816;28;20057;-41
2022/08/23 07:51:11;;;;;;;1.15;0.20;;;;;;;;;;4144065;28;20053;-42
2022/08/23 07:53:13;;;;;;;2.97;0.70;;;;;;;;;;4148801;28;20144;-43
2022/08/23 07:55:14;;;;;;;0.80;0.28;;;;;;;;;;4141915;28;20049;-41
2022/08/23 07:57:34;;;;;;;;;;;;;;;;;;4152611;28;20527;-42
2022/08/23 08:00:00;;;;;;;0.77;0.30;;;;;;;;;;4143464;28;19929;-41
2022/08/23 08:02:14;;;;;;;0.50;0.30;;;;;;;;;;4138394;28;20616;-42
2022/08/23 08:04:15;;;;;;;2.28;0.35;;;;;;;;;;4143867;28;20131;-41
2022/08/23 08:06:26;;;;;;;1.58;0.30;;;;;;;;;;4150896;28;20356;-43
2022/08/23 08:08:27;;;;;;;1.00;0.32;;;;;;;;;;4146185;28;20053;-42
2022/08/23 08:10:29;;;;;;;2.40;0.30;;;;;;;;;;4149651;28;20065;-42
2022/08/23 08:12:31;;;;;;;2.55;0.30;;;;;;;;;;4152186;28;20061;-41
2022/08/23 08:14:36;;;;;;;0.22;0.22;;;;;;;;;;4147810;28;20132;-45
2022/08/23 08:16:41;;;;;;;1.30;0.30;;;;;;;;;;4149028;28;20540;-42
2022/08/23 08:18:45;;;;;;;0.85;0.35;;;;;;;;;;4151498;28;20054;-41
2022/08/23 08:21:18;;;;;;;1.88;0.50;;;;;;;;;;4130366;28;20567;-40
2022/08/23 08:23:42;;;;;;;0.52;0.38;;;;;;;;;;4153072;28;20087;-42
2022/08/23 08:26:13;;;;;;;2.85;0.40;;;;;;;;;;4143571;28;20156;-43
2022/08/23 08:28:24;;;;;;;1.33;0.35;;;;;;;;;;4146004;28;21102;-43
2022/08/23 08:30:26;;;;;;;0.52;0.30;;;;;;;;;;4148152;28;20602;-43
2022/08/23 08:32:27;;;;;;;1.35;0.43;;;;;;;;;;4166396;28;20190;-44
2022/08/23 08:34:28;;;;;;;1.42;0.30;;;;;;;;;;4166420;28;20069;-45
2022/08/23 08:36:37;;;;;;;0.85;0.17;;;;;;;;;;4147693;28;20131;-44
2022/08/23 08:38:40;;;;;;;2.80;0.40;;;;;;;;;;4163404;28;20177;-45
2022/08/23 08:40:42;;;;;;;0.30;0.30;;;;;;;;;;4163103;28;20091;-44
2022/08/23 08:42:58;;;;;;;0.55;0.30;;;;;;;;;;4148630;28;20716;-43
2022/08/23 08:45:10;;;;;;;0.63;0.40;;;;;;;;;;4164324;28;20154;-43
2022/08/23 08:47:40;;;;;;;0.40;0.30;;;;;;;;;;4145744;28;20061;-46
2022/08/23 08:49:46;;;;;;;0.45;0.30;;;;;;;;;;4138569;28;20065;-43
2022/08/23 08:52:20;;;;;;;1.20;0.30;;;;;;;;;;4148529;28;20483;-44
2022/08/23 08:54:24;;;;;;;2.63;0.50;;;;;;;;;;4142705;28;20111;-45
2022/08/23 08:56:29;;;;;;;0.57;0.28;;;;;;;;;;4125724;28;20104;-42
2022/08/23 08:58:42;;;;;;;0.77;0.30;;;;;;;;;;4116581;28;20098;-44
2022/08/23 09:00:45;;;;;;;1.45;0.30;;;;;;;;;;4137898;28;20069;-42
2022/08/23 09:02:47;;;;;;;0.38;0.28;;;;;;;;;;4132823;28;20061;-43
2022/08/23 09:04:48;;;;;;;1.27;0.30;;;;;;;;;;4144816;28;20119;-42
2022/08/23 09:07:02;;;;;;;0.57;0.30;;;;;;;;;;4141347;28;20151;-42
2022/08/23 09:09:10;;;;;;;1.38;0.50;;;;;;;;;;4146501;28;20053;-46
2022/08/23 09:11:19;;;;;;;1.88;0.30;;;;;;;;;;4145124;28;20508;-43
2022/08/23 09:13:26;;;;;;;0.60;0.20;;;;;;;;;;4150296;28;20138;-43
2022/08/23 09:15:54;;;;;;;1.10;0.20;;;;;;;;;;4132065;28;20424;-42
2022/08/23 09:17:57;;;;;;;0.95;0.30;;;;;;;;;;4159251;28;20091;-44
2022/08/23 09:20:03;;;;;;;0.73;0.30;;;;;;;;;;4128134;28;20221;-44
2022/08/23 09:22:12;;;;;;;0.90;0.30;;;;;;;;;;4146754;28;20586;-42
2022/08/23 09:24:13;;;;;;;1.15;0.30;;;;;;;;;;4140308;28;20522;-42
2022/08/23 09:26:32;;;;;;;0.73;0.30;;;;;;;;;;4145673;28;20081;-42
2022/08/23 09:28:35;;;;;;;0.70;0.40;;;;;;;;;;4159441;28;20049;-42
2022/08/23 09:30:46;;;;;;;0.80;0.30;;;;;;;;;;4167348;28;20085;-42
2022/08/23 09:32:50;;;;;;;1.77;0.40;;;;;;;;;;4159201;28;20218;-43
2022/08/23 09:35:05;;;;;;;2.28;0.40;;;;;;;;;;4156711;28;20511;-42
2022/08/23 09:37:16;;;;;;;0.47;0.20;;;;;;;;;;4151291;28;20075;-44
2022/08/23 09:39:30;;;;;;;0.65;0.30;;;;;;;;;;4162325;28;20060;-43
2022/08/23 09:41:37;;;;;;;3.03;0.47;;;;;;;;;;4161737;28;20057;-45
2022/08/23 09:43:46;;;;;;;0.40;0.30;;;;;;;;;;4145699;28;20057;-44
2022/08/23 09:45:48;;;;;;;0.73;0.30;;;;;;;;;;4145967;28;20056;-44
2022/08/23 09:47:50;;;;;;;2.00;0.50;;;;;;;;;;4140413;28;20573;-44
2022/08/23 09:49:54;;;;;;;0.57;0.30;;;;;;;;;;4144441;28;20053;-44
2022/08/23 09:52:00;;;;;;;0.68;0.30;;;;;;;;;;4148222;28;21184;-43
2022/08/23 09:54:31;;;;;;;0.60;0.30;;;;;;;;;;4167302;28;20469;-45
2022/08/23 09:56:37;;;;;;;0.68;0.30;;;;;;;;;;4151479;28;20127;-44
2022/08/23 09:58:45;;;;;;;0.57;0.32;;;;;;;;;;4143831;28;20310;-43
2022/08/23 10:01:10;;;;;;;0.32;0.20;;;;;;;;;;4146280;28;20061;-43
2022/08/23 10:03:18;;;;;;;1.05;0.30;;;;;;;;;;4148279;28;20065;-43
2022/08/23 10:05:30;;;;;;;1.35;0.40;;;;;;;;;;4142023;28;20116;-43
2022/08/23 10:07:37;;;;;;;0.43;0.43;;;;;;;;;;4147650;28;21114;-44
2022/08/23 10:09:39;;;;;;;3.20;0.32;;;;;;;;;;4149980;28;20057;-44
2022/08/23 10:11:44;;;;;;;0.57;0.35;;;;;;;;;;4151475;28;20053;-44
2022/08/23 10:13:46;;;;;;;0.57;0.30;;;;;;;;;;4155291;28;20095;-44
2022/08/23 10:16:18;;;;;;;1.30;0.45;;;;;;;;;;4151946;28;20316;-44
2022/08/23 10:18:41;;;;;;;2.80;0.43;;;;;;;;;;4150039;28;20146;-44
2022/08/23 10:21:04;;;;;;;0.50;0.30;;;;;;;;;;4151423;28;20060;-43
2022/08/23 10:23:12;;;;;;;0.52;0.30;;;;;;;;;;4150345;28;20172;-45
2022/08/23 10:25:29;;;;;;;0.95;0.40;;;;;;;;;;4151161;28;20115;-44
2022/08/23 10:31:08;;;;;;;2.33;0.50;;;;;;;;;;4148331;28;20064;-44
2022/08/23 10:33:18;;;;;;;0.20;0.20;;;;;;;;;;4124824;28;20061;-46
2022/08/23 10:35:53;;;;;;;3.70;0.30;;;;;;;;;;4146817;28;20119;-42
2022/08/23 10:38:29;;;;;;;2.08;0.50;;;;;;;;;;4155272;28;20390;-45
2022/08/23 10:40:38;;;;;;;0.30;0.30;;;;;;;;;;4150269;28;20593;-43
2022/08/23 10:43:02;;;;;;;0.88;0.28;;;;;;;;;;4150965;28;20091;-43
2022/08/23 10:45:14;;;;;;;0.50;0.35;;;;;;;;;;4141468;28;20346;-42
2022/08/23 10:47:26;;;;;;;0.50;0.30;;;;;;;;;;4146692;28;20135;-45
2022/08/23 10:49:28;;;;;;;0.60;0.30;;;;;;;;;;4152059;28;20053;-43
2022/08/23 10:51:33;;;;;;;1.08;0.77;;;;;;;;;;4150837;28;20061;-46
2022/08/23 10:53:40;;;;;;;1.23;0.43;;;;;;;;;;4135185;28;20101;-44
2022/08/23 10:56:04;;;;;;;0.30;0.20;;;;;;;;;;4145991;28;20054;-44
2022/08/23 10:58:15;;;;;;;1.67;0.28;;;;;;;;;;4151598;28;20045;-42
2022/08/23 11:00:20;;;;;;;0.95;0.45;;;;;;;;;;4146270;28;20107;-44
2022/08/23 11:02:47;;;;;;;0.50;0.30;;;;;;;;;;4148261;28;20108;-45
2022/08/23 11:05:20;;;;;;;3.47;0.30;;;;;;;;;;4127704;28;20066;-44
2022/08/23 11:07:40;;;;;;;0.68;0.40;;;;;;;;;;4148705;28;20045;-45
2022/08/23 11:09:59;;;;;;;0.85;0.30;;;;;;;;;;4149509;28;20049;-43
2022/08/23 11:12:05;;;;;;;0.77;0.60;;;;;;;;;;4164265;28;20416;-43
2022/08/23 11:14:09;;;;;;;0.98;0.43;;;;;;;;;;4150696;28;20408;-43
2022/08/23 11:16:22;;;;;;;0.85;0.30;;;;;;;;;;4135813;28;20115;-43
2022/08/23 11:18:37;;;;;;;0.88;0.20;;;;;;;;;;4117946;28;20089;-44
2022/08/23 11:20:47;;;;;;;0.88;0.30;;;;;;;;;;4147103;28;20111;-43
2022/08/23 11:23:00;;;;;;;0.45;0.30;;;;;;;;;;4161053;28;20093;-43
2022/08/23 11:25:05;;;;;;;1.42;0.73;;;;;;;;;;4143313;28;20135;-43
2022/08/23 11:27:28;;;;;;;1.02;0.40;;;;;;;;;;4125221;28;20148;-43
2022/08/23 11:29:31;;;;;;;2.90;0.22;;;;;;;;;;4138030;28;20167;-42
2022/08/23 11:32:05;;;;;;;0.65;0.40;;;;;;;;;;4144850;28;20060;-43
2022/08/23 11:34:10;;;;;;;1.48;0.30;;;;;;;;;;4127562;28;20702;-43
2022/08/23 11:36:22;;;;;;;1.25;0.30;;;;;;;;;;4127208;28;20064;-43
2022/08/23 11:38:47;;;;;;;1.70;0.20;;;;;;;;;;4139767;28;20475;-42
2022/08/23 11:40:48;;;;;;;0.40;0.22;;;;;;;;;;4143888;28;20103;-41
2022/08/23 11:42:51;;;;;;;1.15;0.40;;;;;;;;;;4145804;28;20058;-41
2022/08/23 11:44:52;;;;;;;1.40;0.25;;;;;;;;;;4146701;28;20936;-41
2022/08/23 11:46:54;;;;;;;0.30;0.20;;;;;;;;;;4129771;28;20062;-41
2022/08/23 11:49:14;;;;;;;2.00;0.50;;;;;;;;;;4137944;28;20120;-41
2022/08/23 11:51:18;;;;;;;0.98;0.40;;;;;;;;;;4146671;28;20057;-41
2022/08/23 11:53:25;;;;;;;0.85;0.40;;;;;;;;;;4148382;28;20476;-41
2022/08/23 11:55:29;;;;;;;1.00;0.40;;;;;;;;;;4145789;28;20595;-42
2022/08/23 11:57:47;;;;;;;0.55;0.25;;;;;;;;;;4145647;28;20065;-41
2022/08/23 12:00:00;;;;;;;0.90;0.30;;;;;;;;;;4143191;28;20143;-42
2022/08/23 12:02:39;;;;;;;0.52;0.20;;;;;;;;;;4143828;28;20432;-42
2022/08/23 12:04:48;;;;;;;0.70;0.30;;;;;;;;;;4148419;28;20064;-42
2022/08/23 12:07:00;;;;;;;0.50;0.20;;;;;;;;;;4148067;28;20073;-42
2022/08/23 12:09:11;;;;;;;2.25;0.35;;;;;;;;;;4149093;28;20060;-42
2022/08/23 12:11:14;;;;;;;0.80;0.30;;;;;;;;;;4146263;28;20137;-43
2022/08/23 12:13:18;;;;;;;0.35;0.15;;;;;;;;;;4149392;28;20057;-42
2022/08/23 12:15:58;;;;;;;1.30;0.28;;;;;;;;;;4150839;28;20053;-42
2022/08/23 12:18:10;;;;;;;0.30;0.20;;;;;;;;;;4149550;28;20057;-42
2022/08/23 12:20:13;;;;;;;0.90;0.20;;;;;;;;;;4153805;28;20473;-42
2022/08/23 12:22:21;;;;;;;0.38;0.38;;;;;;;;;;4152813;28;20463;-42
2022/08/23 12:24:53;;;;;;;1.70;0.50;;;;;;;;;;4153646;28;20065;-42
2022/08/23 12:27:04;;;;;;;0.57;0.22;;;;;;;;;;4143063;28;20060;-42
2022/08/23 12:29:22;;;;;;;1.10;0.43;;;;;;;;;;4154071;28;20046;-42
2022/08/23 12:31:55;;;;;;;0.85;0.30;;;;;;;;;;4150258;28;20053;-42
2022/08/23 12:34:17;;;;;;;0.40;0.28;;;;;;;;;;4143764;28;20693;-42
2022/08/23 12:36:53;;;;;;;0.32;0.20;;;;;;;;;;4150416;28;20061;-43
2022/08/23 12:38:57;;;;;;;0.90;0.40;;;;;;;;;;4155830;28;20053;-43
2022/08/23 12:41:18;;;;;;;0.65;0.30;;;;;;;;;;4154080;28;20049;-43
2022/08/23 12:43:30;;;;;;;0.30;0.22;;;;;;;;;;4151665;28;20061;-43
2022/08/23 12:45:41;;;;;;;0.88;0.30;;;;;;;;;;4154444;28;20120;-43
2022/08/23 12:47:54;;;;;;;0.52;0.20;;;;;;;;;;4149721;28;20084;-43
2022/08/23 12:50:11;;;;;;;0.90;0.20;;;;;;;;;;4158021;28;20053;-43
2022/08/23 12:52:13;;;;;;;0.40;0.35;;;;;;;;;;4156793;28;20060;-42
2022/08/23 12:54:21;;;;;;;0.43;0.28;;;;;;;;;;4157479;28;20538;-42